sensor_id;sensor_type;location;lat;lon;timestamp;P1;durP1;ratioP1;P2;durP2;ratioP2
11998;SDS011;40817;51.520;9.954;2022-08-24T00:01:36;3.58;;;1.83;;
11998;SDS011;40817;51.520;9.954;2022-08-24T00:04:04;4.90;;;2.08;;
11998;SDS011;40817;51.520;9.954;2022-08-24T00:06:32;6.32;;;2.03;;
11998;SDS011;40817;51.520;9.954;2022-08-24T00:08:59;4.10;;;1.95;;
11998;SDS011;40817;51.520;9.954;2022-08-24T00:11:28;6.03;;;1.98;;
11998;SDS011;40817;51.520;9.954;2022-08-24T00:13:56;3.65;;;1.98;;
11998;SDS011;40817;51.520;9.954;2022-08-24T00:16:24;3.67;;;1.70;;
11998;SDS011;40817;51.520;9.954;2022-08-24T00:18:52;3.88;;;1.88;;
11998;SDS011;40817;51.520;9.954;2022-08-24T00:21:20;6.03;;;1.92;;
11998;SDS011;40817;51.520;9.954;2022-08-24T00:23:48;2.83;;;1.90;;
11998;SDS011;40817;51.520;9.954;2022-08-24T00:26:16;7.55;;;2.10;;
11998;SDS011;40817;51.520;9.954;2022-08-24T00:28:45;5.82;;;2.20;;
11998;SDS011;40817;51.520;9.954;2022-08-24T00:31:12;4.93;;;2.17;;
11998;SDS011;40817;51.520;9.954;2022-08-24T00:33:40;5.00;;;1.98;;
11998;SDS011;40817;51.520;9.954;2022-08-24T00:36:08;2.97;;;1.83;;
11998;SDS011;40817;51.520;9.954;2022-08-24T00:38:35;6.40;;;2.15;;
11998;SDS011;40817;51.520;9.954;2022-08-24T00:41:04;4.25;;;2.33;;
11998;SDS011;40817;51.520;9.954;2022-08-24T00:43:32;4.75;;;2.00;;
11998;SDS011;40817;51.520;9.954;2022-08-24T00:46:09;3.08;;;1.67;;
11998;SDS011;40817;51.520;9.954;2022-08-24T00:48:47;2.92;;;1.60;;
11998;SDS011;40817;51.520;9.954;2022-08-24T00:51:28;4.60;;;2.15;;
11998;SDS011;40817;51.520;9.954;2022-08-24T00:54:05;4.75;;;2.08;;
11998;SDS011;40817;51.520;9.954;2022-08-24T00:56:41;3.40;;;1.90;;
11998;SDS011;40817;51.520;9.954;2022-08-24T00:59:15;7.40;;;2.90;;
11998;SDS011;40817;51.520;9.954;2022-08-24T01:01:53;4.13;;;1.80;;
11998;SDS011;40817;51.520;9.954;2022-08-24T01:04:23;4.50;;;1.90;;
11998;SDS011;40817;51.520;9.954;2022-08-24T01:06:57;3.63;;;1.90;;
11998;SDS011;40817;51.520;9.954;2022-08-24T01:09:25;4.03;;;2.10;;
11998;SDS011;40817;51.520;9.954;2022-08-24T01:11:54;4.15;;;1.80;;
11998;SDS011;40817;51.520;9.954;2022-08-24T01:14:22;4.07;;;1.63;;
11998;SDS011;40817;51.520;9.954;2022-08-24T01:16:50;3.03;;;2.22;;
11998;SDS011;40817;51.520;9.954;2022-08-24T01:19:38;4.55;;;2.10;;
11998;SDS011;40817;51.520;9.954;2022-08-24T01:22:21;4.05;;;2.80;;
11998;SDS011;40817;51.520;9.954;2022-08-24T01:25:19;13.98;;;5.38;;
11998;SDS011;40817;51.520;9.954;2022-08-24T01:27:50;12.63;;;8.40;;
11998;SDS011;40817;51.520;9.954;2022-08-24T01:30:21;21.30;;;11.88;;
11998;SDS011;40817;51.520;9.954;2022-08-24T01:32:53;19.10;;;12.65;;
11998;SDS011;40817;51.520;9.954;2022-08-24T01:35:24;9.70;;;6.00;;
11998;SDS011;40817;51.520;9.954;2022-08-24T01:37:52;7.50;;;4.00;;
11998;SDS011;40817;51.520;9.954;2022-08-24T01:40:25;5.90;;;2.70;;
11998;SDS011;40817;51.520;9.954;2022-08-24T01:43:01;5.50;;;2.72;;
11998;SDS011;40817;51.520;9.954;2022-08-24T01:45:32;4.93;;;2.83;;
11998;SDS011;40817;51.520;9.954;2022-08-24T01:48:00;5.75;;;2.88;;
11998;SDS011;40817;51.520;9.954;2022-08-24T01:50:28;4.63;;;2.83;;
11998;SDS011;40817;51.520;9.954;2022-08-24T01:52:57;4.35;;;2.78;;
11998;SDS011;40817;51.520;9.954;2022-08-24T01:55:29;5.35;;;2.45;;
11998;SDS011;40817;51.520;9.954;2022-08-24T01:57:58;4.97;;;2.75;;
11998;SDS011;40817;51.520;9.954;2022-08-24T02:00:27;6.43;;;2.70;;
11998;SDS011;40817;51.520;9.954;2022-08-24T02:02:55;8.35;;;3.67;;
11998;SDS011;40817;51.520;9.954;2022-08-24T02:05:23;6.93;;;4.60;;
11998;SDS011;40817;51.520;9.954;2022-08-24T02:07:51;13.50;;;5.80;;
11998;SDS011;40817;51.520;9.954;2022-08-24T02:10:19;16.17;;;8.90;;
11998;SDS011;40817;51.520;9.954;2022-08-24T02:12:49;16.42;;;9.88;;
11998;SDS011;40817;51.520;9.954;2022-08-24T02:15:23;15.52;;;9.25;;
11998;SDS011;40817;51.520;9.954;2022-08-24T02:17:54;13.90;;;8.85;;
11998;SDS011;40817;51.520;9.954;2022-08-24T02:20:22;14.05;;;9.35;;
11998;SDS011;40817;51.520;9.954;2022-08-24T02:22:50;13.27;;;9.00;;
11998;SDS011;40817;51.520;9.954;2022-08-24T02:25:19;17.27;;;10.77;;
11998;SDS011;40817;51.520;9.954;2022-08-24T02:27:49;15.35;;;9.48;;
11998;SDS011;40817;51.520;9.954;2022-08-24T02:30:17;16.88;;;11.45;;
11998;SDS011;40817;51.520;9.954;2022-08-24T02:32:45;11.05;;;6.80;;
11998;SDS011;40817;51.520;9.954;2022-08-24T02:35:13;9.18;;;5.15;;
11998;SDS011;40817;51.520;9.954;2022-08-24T02:37:41;7.13;;;4.47;;
11998;SDS011;40817;51.520;9.954;2022-08-24T02:40:10;7.65;;;3.25;;
11998;SDS011;40817;51.520;9.954;2022-08-24T02:42:38;4.70;;;2.75;;
11998;SDS011;40817;51.520;9.954;2022-08-24T02:45:09;9.07;;;2.95;;
11998;SDS011;40817;51.520;9.954;2022-08-24T02:47:37;5.80;;;3.08;;
11998;SDS011;40817;51.520;9.954;2022-08-24T02:50:05;4.55;;;2.75;;
11998;SDS011;40817;51.520;9.954;2022-08-24T02:52:37;4.28;;;2.58;;
11998;SDS011;40817;51.520;9.954;2022-08-24T02:55:07;5.28;;;2.58;;
11998;SDS011;40817;51.520;9.954;2022-08-24T02:57:38;9.07;;;3.70;;
11998;SDS011;40817;51.520;9.954;2022-08-24T03:00:14;5.22;;;3.50;;
11998;SDS011;40817;51.520;9.954;2022-08-24T03:02:48;5.43;;;3.70;;
11998;SDS011;40817;51.520;9.954;2022-08-24T03:05:16;5.55;;;2.90;;
11998;SDS011;40817;51.520;9.954;2022-08-24T03:07:44;4.70;;;2.80;;
11998;SDS011;40817;51.520;9.954;2022-08-24T03:10:13;7.75;;;2.92;;
11998;SDS011;40817;51.520;9.954;2022-08-24T03:12:41;4.93;;;2.53;;
11998;SDS011;40817;51.520;9.954;2022-08-24T03:15:12;4.63;;;2.75;;
11998;SDS011;40817;51.520;9.954;2022-08-24T03:17:40;5.00;;;2.55;;
11998;SDS011;40817;51.520;9.954;2022-08-24T03:20:11;4.18;;;3.28;;
11998;SDS011;40817;51.520;9.954;2022-08-24T03:22:43;6.32;;;3.40;;
11998;SDS011;40817;51.520;9.954;2022-08-24T03:25:12;8.48;;;3.30;;
11998;SDS011;40817;51.520;9.954;2022-08-24T03:27:42;6.25;;;3.20;;
11998;SDS011;40817;51.520;9.954;2022-08-24T03:30:12;6.93;;;3.22;;
11998;SDS011;40817;51.520;9.954;2022-08-24T03:32:42;6.65;;;3.65;;
11998;SDS011;40817;51.520;9.954;2022-08-24T03:35:10;6.45;;;3.25;;
11998;SDS011;40817;51.520;9.954;2022-08-24T03:37:40;6.40;;;3.65;;
11998;SDS011;40817;51.520;9.954;2022-08-24T03:40:09;6.88;;;3.60;;
11998;SDS011;40817;51.520;9.954;2022-08-24T03:42:38;5.82;;;2.90;;
11998;SDS011;40817;51.520;9.954;2022-08-24T03:45:07;4.90;;;2.97;;
11998;SDS011;40817;51.520;9.954;2022-08-24T03:47:37;6.10;;;2.97;;
11998;SDS011;40817;51.520;9.954;2022-08-24T03:50:05;5.97;;;3.15;;
11998;SDS011;40817;51.520;9.954;2022-08-24T03:52:35;4.35;;;3.30;;
11998;SDS011;40817;51.520;9.954;2022-08-24T03:55:03;6.38;;;3.25;;
11998;SDS011;40817;51.520;9.954;2022-08-24T03:57:34;4.65;;;3.47;;
11998;SDS011;40817;51.520;9.954;2022-08-24T04:00:03;7.00;;;3.63;;
11998;SDS011;40817;51.520;9.954;2022-08-24T04:02:36;7.43;;;3.20;;
11998;SDS011;40817;51.520;9.954;2022-08-24T04:05:04;6.40;;;3.17;;
11998;SDS011;40817;51.520;9.954;2022-08-24T04:07:33;4.47;;;2.95;;
11998;SDS011;40817;51.520;9.954;2022-08-24T04:10:01;5.65;;;2.92;;
11998;SDS011;40817;51.520;9.954;2022-08-24T04:12:29;5.10;;;3.10;;
11998;SDS011;40817;51.520;9.954;2022-08-24T04:14:57;5.50;;;3.05;;
11998;SDS011;40817;51.520;9.954;2022-08-24T04:17:25;4.60;;;3.55;;
11998;SDS011;40817;51.520;9.954;2022-08-24T04:19:56;5.70;;;3.40;;
11998;SDS011;40817;51.520;9.954;2022-08-24T04:22:25;4.53;;;3.60;;
11998;SDS011;40817;51.520;9.954;2022-08-24T04:24:58;6.57;;;3.35;;
11998;SDS011;40817;51.520;9.954;2022-08-24T04:27:26;5.50;;;3.78;;
11998;SDS011;40817;51.520;9.954;2022-08-24T04:29:53;5.85;;;4.00;;
11998;SDS011;40817;51.520;9.954;2022-08-24T04:32:21;6.03;;;3.30;;
11998;SDS011;40817;51.520;9.954;2022-08-24T04:34:49;11.02;;;3.88;;
11998;SDS011;40817;51.520;9.954;2022-08-24T04:37:19;6.18;;;3.78;;
11998;SDS011;40817;51.520;9.954;2022-08-24T04:39:46;6.20;;;3.90;;
11998;SDS011;40817;51.520;9.954;2022-08-24T04:42:14;8.23;;;4.13;;
11998;SDS011;40817;51.520;9.954;2022-08-24T04:44:44;6.38;;;3.47;;
11998;SDS011;40817;51.520;9.954;2022-08-24T04:47:12;8.00;;;3.70;;
11998;SDS011;40817;51.520;9.954;2022-08-24T04:49:39;5.95;;;3.65;;
11998;SDS011;40817;51.520;9.954;2022-08-24T04:52:07;8.60;;;4.63;;
11998;SDS011;40817;51.520;9.954;2022-08-24T04:54:37;9.02;;;3.45;;
11998;SDS011;40817;51.520;9.954;2022-08-24T04:57:04;6.00;;;3.70;;
11998;SDS011;40817;51.520;9.954;2022-08-24T04:59:33;5.60;;;3.53;;
11998;SDS011;40817;51.520;9.954;2022-08-24T05:02:00;7.43;;;3.70;;
11998;SDS011;40817;51.520;9.954;2022-08-24T05:04:28;5.75;;;3.55;;
11998;SDS011;40817;51.520;9.954;2022-08-24T05:06:56;5.97;;;3.92;;
11998;SDS011;40817;51.520;9.954;2022-08-24T05:09:24;5.53;;;3.75;;
11998;SDS011;40817;51.520;9.954;2022-08-24T05:11:53;6.80;;;3.33;;
11998;SDS011;40817;51.520;9.954;2022-08-24T05:14:21;5.63;;;3.65;;
11998;SDS011;40817;51.520;9.954;2022-08-24T05:16:49;8.02;;;3.78;;
11998;SDS011;40817;51.520;9.954;2022-08-24T05:19:17;5.32;;;3.85;;
11998;SDS011;40817;51.520;9.954;2022-08-24T05:21:45;6.38;;;3.70;;
11998;SDS011;40817;51.520;9.954;2022-08-24T05:24:13;5.05;;;3.83;;
11998;SDS011;40817;51.520;9.954;2022-08-24T05:26:41;7.43;;;4.25;;
11998;SDS011;40817;51.520;9.954;2022-08-24T05:29:11;6.90;;;3.42;;
11998;SDS011;40817;51.520;9.954;2022-08-24T05:31:42;5.30;;;4.05;;
11998;SDS011;40817;51.520;9.954;2022-08-24T05:34:11;5.10;;;4.15;;
11998;SDS011;40817;51.520;9.954;2022-08-24T05:36:40;9.20;;;4.53;;
11998;SDS011;40817;51.520;9.954;2022-08-24T05:39:09;6.18;;;3.80;;
11998;SDS011;40817;51.520;9.954;2022-08-24T05:41:40;7.75;;;4.38;;
11998;SDS011;40817;51.520;9.954;2022-08-24T05:44:12;6.03;;;4.25;;
11998;SDS011;40817;51.520;9.954;2022-08-24T05:46:42;8.55;;;3.70;;
11998;SDS011;40817;51.520;9.954;2022-08-24T05:49:11;7.63;;;3.90;;
11998;SDS011;40817;51.520;9.954;2022-08-24T05:51:39;7.07;;;4.47;;
11998;SDS011;40817;51.520;9.954;2022-08-24T05:54:07;6.72;;;4.10;;
11998;SDS011;40817;51.520;9.954;2022-08-24T05:56:36;6.03;;;4.22;;
11998;SDS011;40817;51.520;9.954;2022-08-24T05:59:03;8.40;;;3.75;;
11998;SDS011;40817;51.520;9.954;2022-08-24T06:01:33;7.05;;;3.80;;
11998;SDS011;40817;51.520;9.954;2022-08-24T06:04:01;5.57;;;3.45;;
11998;SDS011;40817;51.520;9.954;2022-08-24T06:06:30;8.07;;;4.20;;
11998;SDS011;40817;51.520;9.954;2022-08-24T06:08:58;5.03;;;3.65;;
11998;SDS011;40817;51.520;9.954;2022-08-24T06:11:27;8.00;;;3.92;;
11998;SDS011;40817;51.520;9.954;2022-08-24T06:13:59;10.07;;;4.15;;
11998;SDS011;40817;51.520;9.954;2022-08-24T06:16:34;7.32;;;4.00;;
11998;SDS011;40817;51.520;9.954;2022-08-24T06:19:03;8.80;;;4.20;;
11998;SDS011;40817;51.520;9.954;2022-08-24T06:21:34;8.25;;;4.32;;
11998;SDS011;40817;51.520;9.954;2022-08-24T06:24:02;9.20;;;4.10;;
11998;SDS011;40817;51.520;9.954;2022-08-24T06:26:32;8.15;;;4.07;;
11998;SDS011;40817;51.520;9.954;2022-08-24T06:29:18;14.05;;;4.50;;
11998;SDS011;40817;51.520;9.954;2022-08-24T06:31:48;6.35;;;3.58;;
11998;SDS011;40817;51.520;9.954;2022-08-24T06:34:16;9.13;;;3.88;;
11998;SDS011;40817;51.520;9.954;2022-08-24T06:36:45;7.88;;;3.97;;
11998;SDS011;40817;51.520;9.954;2022-08-24T06:39:13;7.10;;;3.75;;
11998;SDS011;40817;51.520;9.954;2022-08-24T06:41:41;7.60;;;3.55;;
11998;SDS011;40817;51.520;9.954;2022-08-24T06:44:09;7.00;;;3.75;;
11998;SDS011;40817;51.520;9.954;2022-08-24T06:46:37;7.57;;;3.35;;
11998;SDS011;40817;51.520;9.954;2022-08-24T06:49:06;7.68;;;3.42;;
11998;SDS011;40817;51.520;9.954;2022-08-24T06:51:34;14.02;;;3.92;;
11998;SDS011;40817;51.520;9.954;2022-08-24T06:54:01;6.82;;;3.42;;
11998;SDS011;40817;51.520;9.954;2022-08-24T06:56:29;7.05;;;3.45;;
11998;SDS011;40817;51.520;9.954;2022-08-24T06:58:58;6.95;;;3.92;;
11998;SDS011;40817;51.520;9.954;2022-08-24T07:01:27;8.73;;;3.67;;
11998;SDS011;40817;51.520;9.954;2022-08-24T07:03:55;8.88;;;3.75;;
11998;SDS011;40817;51.520;9.954;2022-08-24T07:06:25;13.63;;;4.00;;
11998;SDS011;40817;51.520;9.954;2022-08-24T07:08:52;9.43;;;3.88;;
11998;SDS011;40817;51.520;9.954;2022-08-24T07:11:21;7.30;;;4.15;;
11998;SDS011;40817;51.520;9.954;2022-08-24T07:13:50;6.80;;;3.63;;
11998;SDS011;40817;51.520;9.954;2022-08-24T07:16:18;6.18;;;3.50;;
11998;SDS011;40817;51.520;9.954;2022-08-24T07:18:47;7.25;;;3.03;;
11998;SDS011;40817;51.520;9.954;2022-08-24T07:21:15;8.60;;;3.47;;
11998;SDS011;40817;51.520;9.954;2022-08-24T07:23:45;7.95;;;3.60;;
11998;SDS011;40817;51.520;9.954;2022-08-24T07:26:14;6.97;;;3.05;;
11998;SDS011;40817;51.520;9.954;2022-08-24T07:28:48;9.98;;;3.80;;
11998;SDS011;40817;51.520;9.954;2022-08-24T07:31:17;8.18;;;3.58;;
11998;SDS011;40817;51.520;9.954;2022-08-24T07:33:45;8.18;;;2.70;;
11998;SDS011;40817;51.520;9.954;2022-08-24T07:36:13;6.13;;;2.85;;
11998;SDS011;40817;51.520;9.954;2022-08-24T07:38:42;8.55;;;3.47;;
11998;SDS011;40817;51.520;9.954;2022-08-24T07:41:11;6.50;;;2.95;;
11998;SDS011;40817;51.520;9.954;2022-08-24T07:43:39;10.35;;;3.53;;
11998;SDS011;40817;51.520;9.954;2022-08-24T07:46:07;6.10;;;2.42;;
11998;SDS011;40817;51.520;9.954;2022-08-24T07:48:35;7.28;;;2.40;;
11998;SDS011;40817;51.520;9.954;2022-08-24T07:51:05;4.72;;;2.10;;
11998;SDS011;40817;51.520;9.954;2022-08-24T07:53:35;6.30;;;2.17;;
11998;SDS011;40817;51.520;9.954;2022-08-24T07:56:03;6.07;;;2.03;;
11998;SDS011;40817;51.520;9.954;2022-08-24T07:58:34;3.40;;;2.05;;
11998;SDS011;40817;51.520;9.954;2022-08-24T08:01:03;6.13;;;2.03;;
11998;SDS011;40817;51.520;9.954;2022-08-24T08:03:32;5.03;;;2.13;;
11998;SDS011;40817;51.520;9.954;2022-08-24T08:06:01;4.13;;;2.05;;
11998;SDS011;40817;51.520;9.954;2022-08-24T08:08:34;4.80;;;2.10;;
11998;SDS011;40817;51.520;9.954;2022-08-24T08:11:05;5.82;;;2.13;;
11998;SDS011;40817;51.520;9.954;2022-08-24T08:13:36;3.33;;;2.03;;
11998;SDS011;40817;51.520;9.954;2022-08-24T08:16:04;5.63;;;2.08;;
11998;SDS011;40817;51.520;9.954;2022-08-24T08:18:34;3.58;;;1.80;;
11998;SDS011;40817;51.520;9.954;2022-08-24T08:21:02;5.93;;;1.75;;
11998;SDS011;40817;51.520;9.954;2022-08-24T08:23:52;7.80;;;2.38;;
11998;SDS011;40817;51.520;9.954;2022-08-24T08:26:37;3.33;;;2.00;;
11998;SDS011;40817;51.520;9.954;2022-08-24T08:29:07;7.63;;;1.80;;
11998;SDS011;40817;51.520;9.954;2022-08-24T08:31:37;2.08;;;1.58;;
11998;SDS011;40817;51.520;9.954;2022-08-24T08:34:05;3.78;;;1.98;;
11998;SDS011;40817;51.520;9.954;2022-08-24T08:36:34;5.07;;;2.25;;
11998;SDS011;40817;51.520;9.954;2022-08-24T08:39:04;4.50;;;1.90;;
11998;SDS011;40817;51.520;9.954;2022-08-24T08:45:04;5.05;;;1.60;;
11998;SDS011;40817;51.520;9.954;2022-08-24T08:47:59;6.00;;;2.22;;
11998;SDS011;40817;51.520;9.954;2022-08-24T08:55:18;5.80;;;1.70;;
11998;SDS011;40817;51.520;9.954;2022-08-24T08:57:57;4.95;;;1.58;;
11998;SDS011;40817;51.520;9.954;2022-08-24T09:00:46;7.13;;;1.70;;
11998;SDS011;40817;51.520;9.954;2022-08-24T09:06:57;4.35;;;2.00;;
11998;SDS011;40817;51.520;9.954;2022-08-24T09:09:53;2.97;;;1.83;;
11998;SDS011;40817;51.520;9.954;2022-08-24T09:16:21;5.07;;;1.90;;
11998;SDS011;40817;51.520;9.954;2022-08-24T09:19:22;2.53;;;1.30;;
11998;SDS011;40817;51.520;9.954;2022-08-24T09:22:11;3.55;;;1.73;;
11998;SDS011;40817;51.520;9.954;2022-08-24T09:24:49;3.15;;;1.30;;
11998;SDS011;40817;51.520;9.954;2022-08-24T09:27:39;5.30;;;1.50;;
11998;SDS011;40817;51.520;9.954;2022-08-24T09:30:21;4.32;;;1.42;;
11998;SDS011;40817;51.520;9.954;2022-08-24T09:33:02;3.05;;;2.00;;
11998;SDS011;40817;51.520;9.954;2022-08-24T09:35:41;5.95;;;1.60;;
11998;SDS011;40817;51.520;9.954;2022-08-24T09:38:41;4.05;;;1.80;;
11998;SDS011;40817;51.520;9.954;2022-08-24T09:44:57;4.82;;;2.33;;
11998;SDS011;40817;51.520;9.954;2022-08-24T09:48:37;3.65;;;1.42;;
11998;SDS011;40817;51.520;9.954;2022-08-24T09:51:53;3.35;;;1.50;;
11998;SDS011;40817;51.520;9.954;2022-08-24T09:58:33;4.65;;;1.77;;
11998;SDS011;40817;51.520;9.954;2022-08-24T10:01:20;2.70;;;1.48;;
11998;SDS011;40817;51.520;9.954;2022-08-24T10:04:04;6.85;;;2.05;;
11998;SDS011;40817;51.520;9.954;2022-08-24T10:06:50;2.20;;;1.63;;
11998;SDS011;40817;51.520;9.954;2022-08-24T10:09:43;3.83;;;1.27;;
11998;SDS011;40817;51.520;9.954;2022-08-24T10:12:49;3.40;;;1.70;;
11998;SDS011;40817;51.520;9.954;2022-08-24T10:15:36;3.00;;;1.40;;
11998;SDS011;40817;51.520;9.954;2022-08-24T10:18:16;3.28;;;1.38;;
11998;SDS011;40817;51.520;9.954;2022-08-24T10:21:19;5.60;;;1.98;;
11998;SDS011;40817;51.520;9.954;2022-08-24T10:27:22;3.92;;;1.67;;
11998;SDS011;40817;51.520;9.954;2022-08-24T10:30:39;4.10;;;1.88;;
11998;SDS011;40817;51.520;9.954;2022-08-24T10:33:24;3.70;;;1.50;;
11998;SDS011;40817;51.520;9.954;2022-08-24T10:39:33;4.25;;;1.63;;
11998;SDS011;40817;51.520;9.954;2022-08-24T10:42:47;4.30;;;1.88;;
11998;SDS011;40817;51.520;9.954;2022-08-24T10:46:05;4.05;;;1.65;;
11998;SDS011;40817;51.520;9.954;2022-08-24T10:49:18;3.15;;;1.80;;
11998;SDS011;40817;51.520;9.954;2022-08-24T10:53:04;3.15;;;1.67;;
11998;SDS011;40817;51.520;9.954;2022-08-24T10:55:54;2.95;;;1.63;;
11998;SDS011;40817;51.520;9.954;2022-08-24T10:58:40;5.30;;;1.90;;
11998;SDS011;40817;51.520;9.954;2022-08-24T11:01:25;6.63;;;1.80;;
11998;SDS011;40817;51.520;9.954;2022-08-24T11:04:00;4.35;;;1.52;;
11998;SDS011;40817;51.520;9.954;2022-08-24T11:06:34;3.70;;;1.80;;
11998;SDS011;40817;51.520;9.954;2022-08-24T11:09:10;5.68;;;1.70;;
11998;SDS011;40817;51.520;9.954;2022-08-24T11:11:43;4.65;;;1.80;;
11998;SDS011;40817;51.520;9.954;2022-08-24T11:14:21;4.85;;;1.70;;
11998;SDS011;40817;51.520;9.954;2022-08-24T11:17:03;4.57;;;1.50;;
11998;SDS011;40817;51.520;9.954;2022-08-24T11:19:42;6.65;;;1.70;;
11998;SDS011;40817;51.520;9.954;2022-08-24T11:22:22;4.60;;;1.90;;
11998;SDS011;40817;51.520;9.954;2022-08-24T11:25:04;4.60;;;1.70;;
11998;SDS011;40817;51.520;9.954;2022-08-24T11:27:42;2.47;;;1.35;;
11998;SDS011;40817;51.520;9.954;2022-08-24T11:30:22;4.38;;;1.85;;
11998;SDS011;40817;51.520;9.954;2022-08-24T11:32:55;3.47;;;1.60;;
11998;SDS011;40817;51.520;9.954;2022-08-24T11:35:27;4.70;;;1.85;;
11998;SDS011;40817;51.520;9.954;2022-08-24T11:38:05;5.40;;;1.50;;
11998;SDS011;40817;51.520;9.954;2022-08-24T11:40:41;3.13;;;1.40;;
11998;SDS011;40817;51.520;9.954;2022-08-24T11:43:37;3.90;;;1.60;;
11998;SDS011;40817;51.520;9.954;2022-08-24T11:46:25;4.00;;;1.63;;
11998;SDS011;40817;51.520;9.954;2022-08-24T11:49:02;4.00;;;1.83;;
11998;SDS011;40817;51.520;9.954;2022-08-24T11:51:43;3.55;;;1.63;;
11998;SDS011;40817;51.520;9.954;2022-08-24T11:54:22;5.18;;;1.63;;
11998;SDS011;40817;51.520;9.954;2022-08-24T11:57:06;5.22;;;1.67;;
11998;SDS011;40817;51.520;9.954;2022-08-24T11:59:43;4.22;;;1.67;;
11998;SDS011;40817;51.520;9.954;2022-08-24T12:02:21;3.08;;;1.70;;
11998;SDS011;40817;51.520;9.954;2022-08-24T12:05:01;6.00;;;1.92;;
11998;SDS011;40817;51.520;9.954;2022-08-24T12:07:44;4.35;;;1.65;;
11998;SDS011;40817;51.520;9.954;2022-08-24T12:10:25;3.70;;;1.63;;
11998;SDS011;40817;51.520;9.954;2022-08-24T12:13:07;4.55;;;1.85;;
11998;SDS011;40817;51.520;9.954;2022-08-24T12:15:53;4.97;;;1.50;;
11998;SDS011;40817;51.520;9.954;2022-08-24T12:18:34;3.45;;;1.80;;
11998;SDS011;40817;51.520;9.954;2022-08-24T12:21:16;8.23;;;1.70;;
11998;SDS011;40817;51.520;9.954;2022-08-24T12:23:50;5.45;;;1.80;;
11998;SDS011;40817;51.520;9.954;2022-08-24T12:26:25;9.03;;;1.70;;
11998;SDS011;40817;51.520;9.954;2022-08-24T12:29:00;2.95;;;1.60;;
11998;SDS011;40817;51.520;9.954;2022-08-24T12:31:37;5.95;;;1.90;;
11998;SDS011;40817;51.520;9.954;2022-08-24T12:34:13;3.80;;;1.50;;
11998;SDS011;40817;51.520;9.954;2022-08-24T12:36:52;4.93;;;1.58;;
11998;SDS011;40817;51.520;9.954;2022-08-24T12:39:30;5.35;;;2.00;;
11998;SDS011;40817;51.520;9.954;2022-08-24T12:42:10;4.07;;;1.60;;
11998;SDS011;40817;51.520;9.954;2022-08-24T12:44:50;5.20;;;1.80;;
11998;SDS011;40817;51.520;9.954;2022-08-24T12:47:24;6.95;;;2.10;;
11998;SDS011;40817;51.520;9.954;2022-08-24T12:50:00;5.47;;;1.90;;
11998;SDS011;40817;51.520;9.954;2022-08-24T12:52:45;4.00;;;1.90;;
11998;SDS011;40817;51.520;9.954;2022-08-24T12:58:59;7.18;;;2.20;;
11998;SDS011;40817;51.520;9.954;2022-08-24T13:01:42;4.20;;;1.65;;
11998;SDS011;40817;51.520;9.954;2022-08-24T13:04:16;5.00;;;1.75;;
11998;SDS011;40817;51.520;9.954;2022-08-24T13:07:00;7.00;;;2.35;;
11998;SDS011;40817;51.520;9.954;2022-08-24T13:09:37;5.72;;;1.80;;
11998;SDS011;40817;51.520;9.954;2022-08-24T13:21:44;2.65;;;1.80;;
11998;SDS011;40817;51.520;9.954;2022-08-24T13:33:47;8.50;;;1.83;;
11998;SDS011;40817;51.520;9.954;2022-08-24T13:42:59;2.80;;;1.50;;
11998;SDS011;40817;51.520;9.954;2022-08-24T13:45:40;5.20;;;1.33;;
11998;SDS011;40817;51.520;9.954;2022-08-24T13:48:19;5.93;;;1.50;;
11998;SDS011;40817;51.520;9.954;2022-08-24T13:51:10;6.22;;;1.63;;
11998;SDS011;40817;51.520;9.954;2022-08-24T14:00:04;4.60;;;1.70;;
11998;SDS011;40817;51.520;9.954;2022-08-24T14:03:25;4.72;;;1.42;;
11998;SDS011;40817;51.520;9.954;2022-08-24T14:06:31;3.78;;;1.60;;
11998;SDS011;40817;51.520;9.954;2022-08-24T14:09:17;6.85;;;1.50;;
11998;SDS011;40817;51.520;9.954;2022-08-24T14:15:18;4.07;;;1.52;;
11998;SDS011;40817;51.520;9.954;2022-08-24T14:18:02;4.85;;;1.55;;
11998;SDS011;40817;51.520;9.954;2022-08-24T14:20:41;5.47;;;1.67;;
11998;SDS011;40817;51.520;9.954;2022-08-24T14:23:51;9.88;;;2.25;;
11998;SDS011;40817;51.520;9.954;2022-08-24T14:29:37;3.28;;;1.40;;
11998;SDS011;40817;51.520;9.954;2022-08-24T14:35:32;6.07;;;1.85;;
11998;SDS011;40817;51.520;9.954;2022-08-24T14:38:13;5.63;;;1.60;;
11998;SDS011;40817;51.520;9.954;2022-08-24T14:41:16;2.95;;;1.38;;
11998;SDS011;40817;51.520;9.954;2022-08-24T14:44:11;6.93;;;1.60;;
11998;SDS011;40817;51.520;9.954;2022-08-24T14:47:25;3.92;;;1.60;;
11998;SDS011;40817;51.520;9.954;2022-08-24T14:50:19;5.40;;;1.75;;
11998;SDS011;40817;51.520;9.954;2022-08-24T14:53:01;4.25;;;1.50;;
11998;SDS011;40817;51.520;9.954;2022-08-24T14:55:54;4.82;;;1.42;;
11998;SDS011;40817;51.520;9.954;2022-08-24T14:58:36;6.60;;;1.80;;
11998;SDS011;40817;51.520;9.954;2022-08-24T15:01:37;7.18;;;1.75;;
11998;SDS011;40817;51.520;9.954;2022-08-24T15:04:18;2.60;;;1.58;;
11998;SDS011;40817;51.520;9.954;2022-08-24T15:07:14;5.47;;;1.80;;
11998;SDS011;40817;51.520;9.954;2022-08-24T15:09:55;6.55;;;1.92;;
11998;SDS011;40817;51.520;9.954;2022-08-24T15:12:29;3.10;;;1.60;;
11998;SDS011;40817;51.520;9.954;2022-08-24T15:15:09;4.35;;;1.55;;
11998;SDS011;40817;51.520;9.954;2022-08-24T15:17:54;3.85;;;1.60;;
11998;SDS011;40817;51.520;9.954;2022-08-24T15:23:37;7.63;;;1.60;;
11998;SDS011;40817;51.520;9.954;2022-08-24T15:26:28;3.33;;;1.80;;
11998;SDS011;40817;51.520;9.954;2022-08-24T15:29:14;3.03;;;1.65;;
11998;SDS011;40817;51.520;9.954;2022-08-24T15:31:53;5.55;;;1.98;;
11998;SDS011;40817;51.520;9.954;2022-08-24T15:34:34;5.03;;;1.60;;
11998;SDS011;40817;51.520;9.954;2022-08-24T15:37:10;5.53;;;1.80;;
11998;SDS011;40817;51.520;9.954;2022-08-24T15:39:41;4.97;;;1.80;;
11998;SDS011;40817;51.520;9.954;2022-08-24T15:42:10;7.25;;;1.77;;
11998;SDS011;40817;51.520;9.954;2022-08-24T15:44:41;6.95;;;1.90;;
11998;SDS011;40817;51.520;9.954;2022-08-24T15:47:18;3.55;;;1.95;;
11998;SDS011;40817;51.520;9.954;2022-08-24T15:49:55;4.35;;;1.95;;
11998;SDS011;40817;51.520;9.954;2022-08-24T15:52:38;5.40;;;2.13;;
11998;SDS011;40817;51.520;9.954;2022-08-24T15:55:15;4.43;;;1.75;;
11998;SDS011;40817;51.520;9.954;2022-08-24T15:58:13;4.63;;;2.13;;
11998;SDS011;40817;51.520;9.954;2022-08-24T16:01:00;7.95;;;1.65;;
11998;SDS011;40817;51.520;9.954;2022-08-24T16:04:08;4.38;;;1.63;;
11998;SDS011;40817;51.520;9.954;2022-08-24T16:06:41;5.35;;;1.70;;
11998;SDS011;40817;51.520;9.954;2022-08-24T16:09:14;4.57;;;2.33;;
11998;SDS011;40817;51.520;9.954;2022-08-24T16:12:04;3.10;;;1.67;;
11998;SDS011;40817;51.520;9.954;2022-08-24T16:14:39;3.95;;;1.70;;
11998;SDS011;40817;51.520;9.954;2022-08-24T16:17:19;5.45;;;1.90;;
11998;SDS011;40817;51.520;9.954;2022-08-24T16:19:56;2.95;;;1.70;;
11998;SDS011;40817;51.520;9.954;2022-08-24T16:22:33;5.00;;;1.90;;
11998;SDS011;40817;51.520;9.954;2022-08-24T16:25:10;7.13;;;2.50;;
11998;SDS011;40817;51.520;9.954;2022-08-24T16:27:52;5.57;;;1.70;;
11998;SDS011;40817;51.520;9.954;2022-08-24T16:30:38;5.97;;;2.13;;
11998;SDS011;40817;51.520;9.954;2022-08-24T16:33:36;3.38;;;2.03;;
11998;SDS011;40817;51.520;9.954;2022-08-24T16:36:13;5.40;;;1.80;;
11998;SDS011;40817;51.520;9.954;2022-08-24T16:38:46;4.55;;;1.80;;
11998;SDS011;40817;51.520;9.954;2022-08-24T16:41:17;3.60;;;1.83;;
11998;SDS011;40817;51.520;9.954;2022-08-24T16:43:49;6.63;;;3.17;;
11998;SDS011;40817;51.520;9.954;2022-08-24T16:46:19;3.10;;;1.85;;
11998;SDS011;40817;51.520;9.954;2022-08-24T16:48:48;3.22;;;1.80;;
11998;SDS011;40817;51.520;9.954;2022-08-24T16:51:18;7.75;;;2.08;;
11998;SDS011;40817;51.520;9.954;2022-08-24T16:53:50;3.42;;;1.70;;
11998;SDS011;40817;51.520;9.954;2022-08-24T16:56:18;4.88;;;2.05;;
11998;SDS011;40817;51.520;9.954;2022-08-24T16:58:46;4.22;;;2.00;;